Time;durP1;ratioP1;P1;durP2;ratioP2;P2;SDS_P1;SDS_P2;PMS_P1;PMS_P2;Temp;Humidity;BMP_temperature;BMP_pressure;BME280_temperature;BME280_humidity;BME280_pressure;Samples;Min_cycle;Max_cycle;Signal;HPM_P1;HPM_P2
2021/01/03 00:00:23;;;;;;;0.50;0.50;;;14.70;79.20;;;;;;4213819;28;20146;-41
2021/01/03 00:02:45;;;;;;;0.98;0.70;;;14.70;79.30;;;;;;4213551;28;20127;-41
2021/01/03 00:05:07;;;;;;;0.17;0.17;;;14.70;79.40;;;;;;4213463;28;20075;-40
2021/01/03 00:07:28;;;;;;;0.45;0.45;;;14.70;79.40;;;;;;4213701;28;20051;-40
2021/01/03 00:09:49;;;;;;;0.85;0.85;;;14.70;79.60;;;;;;4213570;28;20684;-40
2021/01/03 00:12:10;;;;;;;1.45;0.65;;;14.60;79.70;;;;;;4213887;28;20109;-40
2021/01/03 00:14:31;;;;;;;0.57;0.57;;;14.60;79.60;;;;;;4212958;28;20132;-40
2021/01/03 00:16:54;;;;;;;0.57;0.57;;;14.60;79.70;;;;;;4213374;28;20414;-40
2021/01/03 00:19:15;;;;;;;1.40;1.13;;;14.60;79.70;;;;;;4213831;28;20548;-41
2021/01/03 00:21:36;;;;;;;1.02;1.02;;;14.60;79.90;;;;;;4212705;28;20048;-41
2021/01/03 00:23:57;;;;;;;0.10;0.10;;;14.60;79.90;;;;;;4213636;28;20167;-41
2021/01/03 00:26:18;;;;;;;1.13;1.08;;;14.50;79.80;;;;;;4212809;28;20496;-41
2021/01/03 00:28:39;;;;;;;0.10;0.10;;;14.60;80.00;;;;;;4212914;28;20052;-40
2021/01/03 00:31:00;;;;;;;1.85;1.75;;;14.50;80.70;;;;;;4213260;28;20082;-40
2021/01/03 00:33:21;;;;;;;0.50;0.50;;;14.50;80.20;;;;;;4212989;28;20052;-39
2021/01/03 00:35:43;;;;;;;1.20;1.20;;;14.70;80.30;;;;;;4213250;28;20052;-41
2021/01/03 00:38:07;;;;;;;6.22;1.20;;;14.80;79.50;;;;;;4212988;28;20048;-41
2021/01/03 00:40:29;;;;;;;0.40;0.32;;;14.90;78.80;;;;;;4212728;28;20591;-40
2021/01/03 00:42:50;;;;;;;0.98;0.98;;;15.00;78.40;;;;;;4213390;28;20048;-41
2021/01/03 00:45:11;;;;;;;1.10;1.10;;;15.10;78.10;;;;;;4213274;28;20055;-42
2021/01/03 00:47:32;;;;;;;;;;;15.10;78.00;;;;;;4213267;28;20044;-41
2021/01/03 00:49:53;;;;;;;0.20;0.20;;;15.10;78.10;;;;;;4212817;28;19924;-41
2021/01/03 00:52:15;;;;;;;1.33;1.33;;;15.10;78.00;;;;;;4212448;28;20052;-41
2021/01/03 00:54:36;;;;;;;1.45;1.35;;;15.00;78.00;;;;;;4212407;28;20048;-41
2021/01/03 00:56:57;;;;;;;0.75;0.57;;;15.00;78.10;;;;;;4213260;28;20056;-41
2021/01/03 00:59:18;;;;;;;0.30;0.30;;;14.90;78.20;;;;;;4212463;28;20055;-41
2021/01/03 01:01:39;;;;;;;0.30;0.30;;;14.90;78.30;;;;;;4212772;28;20526;-41
2021/01/03 01:04:00;;;;;;;0.00;0.00;;;14.90;78.60;;;;;;4212523;28;20052;-41
2021/01/03 01:06:21;;;;;;;0.95;0.95;;;14.80;78.80;;;;;;4212392;28;20058;-40
2021/01/03 01:08:42;;;;;;;13.38;0.88;;;14.80;79.00;;;;;;4212842;28;20560;-40
2021/01/03 01:11:05;;;;;;;0.50;0.50;;;14.80;79.20;;;;;;4213134;28;20106;-40
2021/01/03 01:13:25;;;;;;;0.00;0.00;;;14.90;78.60;;;;;;4212306;28;20059;-40
2021/01/03 01:15:46;;;;;;;0.10;0.10;;;15.10;78.00;;;;;;4212261;28;20079;-41
2021/01/03 01:18:06;;;;;;;0.43;0.43;;;15.20;77.30;;;;;;4212769;28;20056;-40
2021/01/03 01:20:28;;;;;;;0.95;0.95;;;15.30;77.00;;;;;;4212542;28;20048;-41
2021/01/03 01:22:49;;;;;;;;;;;15.30;76.80;;;;;;4212895;28;20052;-41
2021/01/03 01:25:13;;;;;;;1.33;1.23;;;15.30;76.60;;;;;;4212899;28;19969;-40
2021/01/03 01:27:34;;;;;;;0.70;0.70;;;15.20;76.70;;;;;;4212360;28;20131;-40
2021/01/03 01:29:55;;;;;;;0.25;0.25;;;15.20;77.00;;;;;;4212281;28;20044;-41
2021/01/03 01:32:16;;;;;;;2.28;1.02;;;15.10;77.10;;;;;;4212385;28;20060;-40
2021/01/03 01:34:37;;;;;;;2.30;1.55;;;15.10;77.50;;;;;;4211790;28;20469;-41
2021/01/03 01:36:57;;;;;;;0.47;0.47;;;15.10;77.60;;;;;;4211129;28;20485;-41
2021/01/03 01:39:18;;;;;;;4.65;0.85;;;15.00;77.70;;;;;;4212234;28;20113;-41
2021/01/03 01:41:40;;;;;;;1.90;1.90;;;15.00;77.90;;;;;;4212347;28;20556;-42
2021/01/03 01:44:03;;;;;;;0.47;0.47;;;15.20;77.30;;;;;;4211997;28;20052;-42
2021/01/03 01:46:30;;;;;;;0.80;0.80;;;15.30;76.90;;;;;;4212195;28;20518;-40
2021/01/03 01:48:51;;;;;;;1.98;1.85;;;15.30;76.40;;;;;;4212492;28;20077;-41
2021/01/03 01:51:22;;;;;;;1.13;0.55;;;15.30;76.30;;;;;;4212821;28;20395;-41
2021/01/03 01:53:54;;;;;;;1.83;1.75;;;15.30;76.30;;;;;;4212297;28;20052;-41
2021/01/03 01:56:22;;;;;;;1.30;1.30;;;15.20;76.50;;;;;;4211737;28;20097;-41
2021/01/03 01:58:50;;;;;;;1.83;1.17;;;15.20;76.70;;;;;;4212046;28;20055;-43
2021/01/03 02:01:18;;;;;;;1.67;1.58;;;15.20;76.80;;;;;;4212623;28;20052;-41
2021/01/03 02:03:49;;;;;;;0.80;0.80;;;15.30;76.40;;;;;;4215215;28;20486;-41
2021/01/03 02:06:14;;;;;;;1.35;1.35;;;15.50;75.60;;;;;;4215678;28;20048;-40
2021/01/03 02:08:40;;;;;;;1.02;1.02;;;15.60;74.80;;;;;;4215426;28;20055;-40
2021/01/03 02:11:03;;;;;;;0.22;0.22;;;15.70;74.30;;;;;;4214819;28;20056;-41
2021/01/03 02:13:28;;;;;;;4.28;2.35;;;15.70;74.20;;;;;;4215067;28;20072;-41
2021/01/03 02:15:52;;;;;;;1.83;1.73;;;15.70;74.00;;;;;;4215700;28;20052;-41
2021/01/03 02:18:14;;;;;;;1.33;1.33;;;15.70;74.30;;;;;;4215283;28;20065;-41
2021/01/03 02:20:46;;;;;;;2.67;1.55;;;15.60;74.30;;;;;;4215228;28;20559;-41
2021/01/03 02:23:11;;;;;;;0.32;0.32;;;15.70;74.20;;;;;;4198808;28;20055;-40
2021/01/03 02:25:33;;;;;;;0.43;0.43;;;15.70;73.80;;;;;;4198387;28;20131;-41
2021/01/03 02:28:07;;;;;;;2.90;1.20;;;15.70;73.70;;;;;;4198918;28;20156;-42
2021/01/03 02:30:29;;;;;;;0.10;0.10;;;15.70;73.70;;;;;;4198215;28;20060;-41
2021/01/03 02:33:05;;;;;;;2.47;2.35;;;15.70;73.70;;;;;;4213123;28;20055;-41
2021/01/03 02:35:26;;;;;;;3.53;1.27;;;15.80;73.30;;;;;;4215020;28;20496;-41
2021/01/03 02:37:52;;;;;;;0.38;0.22;;;15.90;73.00;;;;;;4214926;28;20052;-41
2021/01/03 02:40:16;;;;;;;2.17;2.05;;;15.80;72.80;;;;;;4214976;28;20052;-41
2021/01/03 02:42:40;;;;;;;0.10;0.10;;;15.90;72.90;;;;;;4214613;28;20055;-41
2021/01/03 02:45:05;;;;;;;0.20;0.20;;;15.90;72.80;;;;;;4214497;28;20052;-41
2021/01/03 02:47:32;;;;;;;3.55;1.58;;;15.90;72.90;;;;;;4214884;28;20058;-42
2021/01/03 02:49:53;;;;;;;3.60;2.05;;;15.80;73.00;;;;;;4214537;28;20180;-41
2021/01/03 02:52:16;;;;;;;;;;;15.80;73.20;;;;;;4215694;28;20048;-41
2021/01/03 02:54:37;;;;;;;0.73;0.73;;;15.80;73.30;;;;;;4214810;28;19969;-41
2021/01/03 02:56:59;;;;;;;0.98;0.85;;;15.90;72.90;;;;;;4197916;28;20056;-41
2021/01/03 02:59:21;;;;;;;2.20;1.60;;;15.90;72.40;;;;;;4210480;28;20051;-41
2021/01/03 03:01:42;;;;;;;0.55;0.55;;;16.00;72.40;;;;;;4214214;28;20040;-41
2021/01/03 03:04:03;;;;;;;1.15;1.15;;;16.00;72.10;;;;;;4214908;28;20048;-41
2021/01/03 03:06:23;;;;;;;;;;;15.90;71.90;;;;;;4215041;28;20048;-41
2021/01/03 03:08:44;;;;;;;1.43;1.43;;;15.90;72.00;;;;;;4214219;28;19975;-41
2021/01/03 03:11:05;;;;;;;0.10;0.10;;;16.00;71.90;;;;;;4214501;28;20456;-41
2021/01/03 03:13:26;;;;;;;0.25;0.25;;;16.00;71.60;;;;;;4214129;28;20334;-41
2021/01/03 03:15:47;;;;;;;0.47;0.47;;;16.10;71.10;;;;;;4214368;28;20531;-43
2021/01/03 03:18:08;;;;;;;0.65;0.65;;;16.30;70.50;;;;;;4214379;28;20716;-40
2021/01/03 03:20:29;;;;;;;0.00;0.00;;;16.40;70.10;;;;;;4214473;28;20101;-41
2021/01/03 03:22:51;;;;;;;0.90;0.90;;;16.40;69.80;;;;;;4214378;28;20052;-41
2021/01/03 03:25:12;;;;;;;0.45;0.45;;;16.40;69.90;;;;;;4214323;28;20059;-40
2021/01/03 03:27:33;;;;;;;0.57;0.57;;;16.30;69.90;;;;;;4214451;28;20503;-41
2021/01/03 03:29:54;;;;;;;;;;;16.30;70.30;;;;;;4214370;28;20054;-41
2021/01/03 03:32:16;;;;;;;0.13;0.13;;;16.20;71.20;;;;;;4212857;28;20359;-42
2021/01/03 03:34:37;;;;;;;0.85;0.85;;;16.10;70.70;;;;;;4214008;28;20051;-41
2021/01/03 03:36:58;;;;;;;0.93;0.93;;;16.00;71.20;;;;;;4214077;28;20126;-41
2021/01/03 03:39:19;;;;;;;0.38;0.38;;;15.90;71.70;;;;;;4214041;28;20056;-41
2021/01/03 03:41:40;;;;;;;0.50;0.50;;;15.80;72.20;;;;;;4214404;28;20058;-41
2021/01/03 03:44:01;;;;;;;2.33;1.05;;;15.70;72.50;;;;;;4213652;28;20048;-41
2021/01/03 03:46:22;;;;;;;0.95;0.95;;;15.70;73.00;;;;;;4214311;28;20047;-41
2021/01/03 03:48:44;;;;;;;0.32;0.32;;;15.70;72.60;;;;;;4213565;28;20052;-41
2021/01/03 03:51:05;;;;;;;0.30;0.30;;;15.80;72.20;;;;;;4214043;28;20147;-42
2021/01/03 03:53:26;;;;;;;1.35;0.95;;;15.80;72.00;;;;;;4213491;28;20066;-41
2021/01/03 03:55:47;;;;;;;0.00;0.00;;;15.80;71.70;;;;;;4213725;28;20060;-41
2021/01/03 03:58:08;;;;;;;2.42;0.80;;;15.90;71.70;;;;;;4212857;28;20052;-41
2021/01/03 04:00:29;;;;;;;3.88;0.68;;;15.90;71.60;;;;;;4213581;28;20055;-41
2021/01/03 04:02:51;;;;;;;0.10;0.10;;;15.90;71.60;;;;;;4213932;28;20052;-40
2021/01/03 04:05:16;;;;;;;0.95;0.95;;;15.90;71.80;;;;;;4213768;28;20414;-41
2021/01/03 04:07:36;;;;;;;0.70;0.70;;;15.80;72.10;;;;;;4213292;28;20062;-41
2021/01/03 04:09:57;;;;;;;0.43;0.43;;;15.90;72.10;;;;;;4213977;28;20079;-40
2021/01/03 04:12:18;;;;;;;1.65;0.50;;;16.00;71.20;;;;;;4213244;28;20052;-41
2021/01/03 04:14:39;;;;;;;1.38;0.80;;;16.10;70.60;;;;;;4213787;28;20150;-41
2021/01/03 04:17:04;;;;;;;1.77;1.40;;;16.30;70.50;;;;;;4213353;28;20232;-41
2021/01/03 04:19:26;;;;;;;1.40;1.40;;;16.40;69.80;;;;;;4213339;28;20101;-41
2021/01/03 04:21:52;;;;;;;0.50;0.50;;;16.40;69.60;;;;;;4213407;28;20055;-41
2021/01/03 04:24:13;;;;;;;9.82;3.15;;;16.40;69.50;;;;;;4212282;28;20048;-41
2021/01/03 04:26:36;;;;;;;1.02;1.02;;;16.40;69.60;;;;;;4213289;28;20131;-41
2021/01/03 04:28:57;;;;;;;0.20;0.20;;;16.30;69.80;;;;;;4213165;28;20098;-40
2021/01/03 04:31:19;;;;;;;1.98;1.88;;;16.20;70.00;;;;;;4212840;28;20129;-41
2021/01/03 04:33:41;;;;;;;1.95;0.68;;;16.10;70.40;;;;;;4213404;28;20426;-41
2021/01/03 04:36:02;;;;;;;2.80;2.10;;;16.00;70.70;;;;;;4213028;28;20055;-41
2021/01/03 04:38:23;;;;;;;1.38;1.35;;;15.90;71.20;;;;;;4213462;28;20056;-43
2021/01/03 04:40:47;;;;;;;1.60;0.88;;;15.80;71.70;;;;;;4212572;28;20055;-41
2021/01/03 04:43:15;;;;;;;0.60;0.60;;;15.80;71.80;;;;;;4213068;28;20058;-41
2021/01/03 04:45:39;;;;;;;2.28;1.10;;;15.90;71.50;;;;;;4213198;28;20502;-41
2021/01/03 04:48:02;;;;;;;1.65;1.58;;;16.10;70.90;;;;;;4211793;28;20052;-41
2021/01/03 04:50:46;;;;;;;0.00;0.00;;;16.20;70.20;;;;;;4212160;28;20052;-41
2021/01/03 04:53:21;;;;;;;1.50;1.40;;;16.30;69.80;;;;;;4212564;28;20138;-41
2021/01/03 04:55:47;;;;;;;0.35;0.35;;;16.20;69.70;;;;;;4212732;28;20047;-41
2021/01/03 04:58:30;;;;;;;3.00;0.70;;;16.20;69.70;;;;;;4213090;28;20055;-41
2021/01/03 05:01:06;;;;;;;1.85;1.75;;;16.10;70.10;;;;;;4212717;28;20489;-40
2021/01/03 05:03:44;;;;;;;1.08;0.90;;;16.00;70.40;;;;;;4211212;28;20490;-41
2021/01/03 05:06:11;;;;;;;1.45;1.35;;;16.20;70.00;;;;;;4212680;28;20040;-40
2021/01/03 05:08:37;;;;;;;2.97;2.70;;;16.40;69.10;;;;;;4212448;28;20090;-41
2021/01/03 05:11:02;;;;;;;0.17;0.17;;;16.50;68.40;;;;;;4212912;28;20430;-41
2021/01/03 05:13:31;;;;;;;2.45;1.35;;;16.60;67.80;;;;;;4212286;28;20044;-41
2021/01/03 05:15:52;;;;;;;1.50;1.40;;;16.60;67.70;;;;;;4212779;28;20060;-41
2021/01/03 05:18:14;;;;;;;1.23;1.15;;;16.60;67.50;;;;;;4212755;28;20391;-41
2021/01/03 05:20:35;;;;;;;1.05;0.95;;;16.50;67.40;;;;;;4212152;28;20048;-41
2021/01/03 05:23:13;;;;;;;2.53;1.25;;;16.50;67.80;;;;;;4212491;28;20047;-43
2021/01/03 05:25:40;;;;;;;2.67;2.50;;;16.40;68.10;;;;;;4195895;28;20593;-42
2021/01/03 05:28:04;;;;;;;0.45;0.45;;;16.30;68.60;;;;;;4201647;28;20056;-41
2021/01/03 05:30:28;;;;;;;1.02;1.02;;;16.20;69.10;;;;;;4212487;28;20044;-41
2021/01/03 05:32:49;;;;;;;1.15;1.15;;;16.00;69.80;;;;;;4211847;28;20418;-42
2021/01/03 05:35:22;;;;;;;0.77;0.77;;;15.90;70.10;;;;;;4212364;28;20527;-42
2021/01/03 05:37:45;;;;;;;2.45;1.80;;;15.90;70.60;;;;;;4212240;28;20044;-42
2021/01/03 05:40:26;;;;;;;0.47;0.47;;;16.00;70.30;;;;;;4212235;28;20054;-40
2021/01/03 05:42:46;;;;;;;0.55;0.55;;;16.00;69.80;;;;;;4212076;28;20051;-40
2021/01/03 05:45:10;;;;;;;;;;;16.10;69.50;;;;;;4212761;28;20055;-40
2021/01/03 05:47:34;;;;;;;0.75;0.75;;;16.10;69.50;;;;;;4212058;28;19923;-40
2021/01/03 05:50:24;;;;;;;1.13;1.05;;;16.00;69.60;;;;;;4212216;28;20052;-40
2021/01/03 05:52:51;;;;;;;1.55;1.00;;;16.00;69.80;;;;;;4212207;28;20056;-41
2021/01/03 05:55:19;;;;;;;0.47;0.47;;;16.10;69.40;;;;;;4211890;28;20565;-41
2021/01/03 05:57:40;;;;;;;1.50;1.50;;;16.20;68.90;;;;;;4212419;28;20516;-40
2021/01/03 06:00:16;;;;;;;0.32;0.32;;;16.20;68.60;;;;;;4211903;28;20052;-42
2021/01/03 06:02:37;;;;;;;0.93;0.93;;;16.10;68.50;;;;;;4212049;28;20048;-41
2021/01/03 06:05:05;;;;;;;0.98;0.85;;;16.10;68.70;;;;;;4212136;28;20425;-42
2021/01/03 06:07:28;;;;;;;3.15;2.05;;;16.00;69.10;;;;;;4212147;28;20051;-41
2021/01/03 06:09:48;;;;;;;1.60;1.50;;;16.00;69.40;;;;;;4210710;28;20494;-41
2021/01/03 06:12:15;;;;;;;1.88;1.77;;;16.00;68.80;;;;;;4212064;28;20135;-40
2021/01/03 06:14:37;;;;;;;0.22;0.22;;;16.00;68.70;;;;;;4212445;28;20556;-41
2021/01/03 06:17:06;;;;;;;5.00;1.45;;;16.00;68.80;;;;;;4212508;28;20077;-41
2021/01/03 06:19:35;;;;;;;0.40;0.40;;;16.00;69.00;;;;;;4212363;28;20059;-41
2021/01/03 06:21:56;;;;;;;0.32;0.32;;;16.00;68.70;;;;;;4212381;28;20509;-41
2021/01/03 06:24:19;;;;;;;1.08;1.08;;;16.00;68.60;;;;;;4195352;28;20083;-41
2021/01/03 06:26:44;;;;;;;1.20;1.20;;;15.90;68.70;;;;;;4195219;28;20087;-42
2021/01/03 06:29:13;;;;;;;2.28;1.35;;;15.90;69.00;;;;;;4211297;28;20048;-40
2021/01/03 06:32:19;;;;;;;0.30;0.30;;;15.80;69.10;;;;;;4211651;28;20552;-42
2021/01/03 06:34:49;;;;;;;1.92;1.75;;;15.80;69.00;;;;;;4212227;28;20505;-40
2021/01/03 06:37:20;;;;;;;0.40;0.40;;;15.80;69.20;;;;;;4212265;28;20158;-41
2021/01/03 06:39:46;;;;;;;;;;;16.00;68.70;;;;;;4211966;28;20048;-41
2021/01/03 06:42:35;;;;;;;1.55;1.17;;;16.10;68.00;;;;;;4211552;28;19930;-41
2021/01/03 06:45:38;;;;;;;0.10;0.10;;;16.30;67.10;;;;;;4211682;28;20067;-41
2021/01/03 06:48:41;;;;;;;2.30;2.17;;;16.40;66.70;;;;;;4211220;28;20056;-41
2021/01/03 06:51:17;;;;;;;4.97;1.60;;;16.50;67.30;;;;;;4214738;28;20047;-40
2021/01/03 06:54:19;;;;;;;2.78;2.53;;;16.50;67.10;;;;;;4213532;28;20132;-40
2021/01/03 06:57:29;;;;;;;1.77;0.63;;;16.50;67.00;;;;;;4210860;28;20060;-40
2021/01/03 07:00:13;;;;;;;1.30;0.50;;;16.40;67.50;;;;;;4162633;28;20053;-41
2021/01/03 07:02:40;;;;;;;0.88;0.88;;;16.30;67.30;;;;;;4162622;28;20113;-40
2021/01/03 07:05:06;;;;;;;1.40;0.82;;;16.40;67.40;;;;;;4201820;28;20048;-41
2021/01/03 07:07:29;;;;;;;0.57;0.57;;;16.40;67.20;;;;;;4213526;28;20051;-41
2021/01/03 07:09:59;;;;;;;1.48;1.20;;;16.30;67.60;;;;;;4214249;28;20056;-41
2021/01/03 07:12:33;;;;;;;1.50;1.40;;;16.30;68.00;;;;;;4214424;28;20063;-39
2021/01/03 07:14:56;;;;;;;1.50;1.40;;;16.20;68.30;;;;;;4214628;28;20479;-40
2021/01/03 07:17:17;;;;;;;0.57;0.57;;;16.10;68.60;;;;;;4214424;28;20417;-41
2021/01/03 07:19:41;;;;;;;1.00;1.00;;;16.20;68.40;;;;;;4214424;28;20131;-41
2021/01/03 07:22:07;;;;;;;1.70;1.70;;;16.20;68.10;;;;;;4214370;28;20051;-41
2021/01/03 07:24:36;;;;;;;0.70;0.65;;;16.20;68.10;;;;;;4213324;28;20442;-40
2021/01/03 07:27:36;;;;;;;1.60;1.50;;;16.30;67.80;;;;;;4214481;28;20125;-40
2021/01/03 07:30:29;;;;;;;1.73;1.65;;;16.50;67.40;;;;;;4214486;28;20052;-40
2021/01/03 07:32:59;;;;;;;0.38;0.38;;;16.50;67.10;;;;;;4211879;28;20066;-40
2021/01/03 07:35:35;;;;;;;0.10;0.10;;;16.50;67.10;;;;;;4214338;28;20126;-40
2021/01/03 07:38:16;;;;;;;0.73;0.73;;;16.50;67.20;;;;;;4214318;28;20434;-41
2021/01/03 07:40:50;;;;;;;0.15;0.15;;;16.50;67.10;;;;;;4214205;28;20070;-40
2021/01/03 07:43:11;;;;;;;0.68;0.68;;;16.50;67.00;;;;;;4214169;28;20055;-40
2021/01/03 07:45:42;;;;;;;1.15;1.15;;;16.50;66.80;;;;;;4214085;28;20490;-40
2021/01/03 07:48:04;;;;;;;2.60;2.22;;;16.50;67.60;;;;;;4213743;28;20063;-41
2021/01/03 07:50:31;;;;;;;0.52;0.52;;;16.50;66.80;;;;;;4214001;28;20058;-41
2021/01/03 07:52:54;;;;;;;0.43;0.43;;;16.40;66.90;;;;;;4213989;28;20056;-40
2021/01/03 07:55:26;;;;;;;0.68;0.68;;;16.40;67.10;;;;;;4213835;28;20062;-41
2021/01/03 07:57:52;;;;;;;4.38;2.28;;;16.40;67.00;;;;;;4213971;28;20048;-40
2021/01/03 08:00:15;;;;;;;1.40;1.40;;;16.50;66.50;;;;;;4213568;28;20048;-40
2021/01/03 08:02:38;;;;;;;1.20;1.02;;;16.60;66.20;;;;;;4213811;28;20138;-41
2021/01/03 08:05:02;;;;;;;0.25;0.25;;;16.50;66.10;;;;;;4213832;28;20071;-41
2021/01/03 08:07:22;;;;;;;2.05;1.98;;;16.40;66.30;;;;;;4213494;28;20517;-42
2021/01/03 08:09:44;;;;;;;0.10;0.10;;;16.30;66.70;;;;;;4212459;28;20044;-40
2021/01/03 08:12:13;;;;;;;2.08;1.98;;;16.30;66.90;;;;;;4213440;28;20117;-41
2021/01/03 08:14:40;;;;;;;0.80;0.80;;;16.20;67.10;;;;;;4213198;28;20058;-41
2021/01/03 08:17:01;;;;;;;0.57;0.57;;;16.30;67.00;;;;;;4211474;28;20151;-45
2021/01/03 08:19:22;;;;;;;;;;;16.50;66.50;;;;;;4213523;28;20073;-41
2021/01/03 08:21:43;;;;;;;0.25;0.25;;;16.60;65.50;;;;;;4213226;28;19923;-41
2021/01/03 08:24:07;;;;;;;0.50;0.50;;;16.70;65.00;;;;;;4212667;28;20052;-41
2021/01/03 08:26:28;;;;;;;1.30;1.25;;;16.70;64.80;;;;;;4213201;28;20060;-40
2021/01/03 08:28:54;;;;;;;;;;;16.70;64.80;;;;;;4212549;28;20048;-39
2021/01/03 08:31:16;;;;;;;0.57;0.55;;;16.60;65.20;;;;;;4213098;28;20022;-40
2021/01/03 08:33:40;;;;;;;1.08;1.08;;;16.50;66.40;;;;;;4212853;28;20048;-41
2021/01/03 08:36:14;;;;;;;0.50;0.50;;;16.40;68.40;;;;;;4213476;28;20056;-43
2021/01/03 08:38:35;;;;;;;1.65;0.57;;;16.30;69.70;;;;;;4213480;28;20563;-41
2021/01/03 08:41:05;;;;;;;0.10;0.10;;;16.30;70.00;;;;;;4213140;28;20052;-41
2021/01/03 08:43:30;;;;;;;0.20;0.20;;;16.20;71.00;;;;;;4212124;28;20817;-41
2021/01/03 08:45:51;;;;;;;0.10;0.10;;;16.10;71.10;;;;;;4212647;28;20122;-41
2021/01/03 08:48:20;;;;;;;1.60;1.48;;;16.10;71.10;;;;;;4212429;28;20125;-40
2021/01/03 08:50:42;;;;;;;0.80;0.73;;;16.00;71.10;;;;;;4212801;28;20101;-41
2021/01/03 08:53:05;;;;;;;2.53;2.38;;;15.90;71.00;;;;;;4212719;28;20071;-40
2021/01/03 08:55:33;;;;;;;1.02;0.75;;;15.80;71.00;;;;;;4212555;28;20509;-40
2021/01/03 08:57:56;;;;;;;0.20;0.20;;;15.80;71.40;;;;;;4211766;28;20071;-40
2021/01/03 09:00:22;;;;;;;0.30;0.30;;;15.70;71.70;;;;;;4212665;28;20052;-40
2021/01/03 09:02:45;;;;;;;1.95;1.85;;;15.60;71.60;;;;;;4198632;28;20062;-40
2021/01/03 09:05:08;;;;;;;1.30;0.73;;;15.50;71.90;;;;;;4201415;28;20134;-40
2021/01/03 09:07:33;;;;;;;2.22;1.48;;;15.60;72.20;;;;;;4211995;28;20131;-41
2021/01/03 09:09:54;;;;;;;0.30;0.30;;;15.70;71.40;;;;;;4211959;28;20498;-40
2021/01/03 09:12:31;;;;;;;;;;;15.80;70.90;;;;;;4203050;28;20505;-39
2021/01/03 09:14:56;;;;;;;1.13;1.13;;;15.80;70.80;;;;;;4212811;28;19919;-40
2021/01/03 09:17:19;;;;;;;0.75;0.65;;;15.80;70.40;;;;;;4212455;28;20412;-40
2021/01/03 09:19:49;;;;;;;0.90;0.90;;;15.80;70.70;;;;;;4212478;28;20490;-40
2021/01/03 09:22:12;;;;;;;0.47;0.47;;;15.70;70.60;;;;;;4211938;28;20051;-40
2021/01/03 09:24:36;;;;;;;1.27;1.27;;;15.70;70.60;;;;;;4207755;28;20047;-40
2021/01/03 09:26:59;;;;;;;0.30;0.30;;;15.70;70.30;;;;;;4212083;28;20059;-41
2021/01/03 09:29:24;;;;;;;0.95;0.95;;;15.80;70.10;;;;;;4212041;28;20079;-41
2021/01/03 09:32:01;;;;;;;0.60;0.60;;;15.80;69.80;;;;;;4211156;28;20054;-41
2021/01/03 09:34:34;;;;;;;2.28;2.13;;;15.70;69.70;;;;;;4211712;28;20151;-42
2021/01/03 09:37:02;;;;;;;1.80;1.70;;;15.60;69.90;;;;;;4211865;28;20155;-43
2021/01/03 09:39:46;;;;;;;1.60;1.50;;;15.80;69.50;;;;;;4212424;28;20052;-41
2021/01/03 09:42:30;;;;;;;0.70;0.70;;;16.40;67.80;;;;;;4211996;28;20129;-41
2021/01/03 09:45:00;;;;;;;1.10;1.00;;;17.20;64.50;;;;;;4212105;28;20071;-41
2021/01/03 09:47:21;;;;;;;1.13;0.47;;;18.10;60.80;;;;;;4205217;28;20860;-41
2021/01/03 09:49:48;;;;;;;1.13;1.13;;;18.90;58.20;;;;;;4212318;28;20154;-41
2021/01/03 09:52:17;;;;;;;1.40;1.30;;;19.70;55.90;;;;;;4212357;28;20574;-42
2021/01/03 09:54:49;;;;;;;0.40;0.40;;;20.40;53.90;;;;;;4211722;28;20048;-48
2021/01/03 09:57:21;;;;;;;0.85;0.85;;;21.30;51.70;;;;;;4211852;28;20419;-42
2021/01/03 09:59:54;;;;;;;0.65;0.65;;;21.90;49.80;;;;;;4199432;28;20048;-42
2021/01/03 10:02:18;;;;;;;7.00;1.55;;;22.40;48.60;;;;;;4195661;28;20054;-42
2021/01/03 10:04:43;;;;;;;0.20;0.20;;;22.70;47.60;;;;;;4208773;28;20093;-42
2021/01/03 10:07:11;;;;;;;1.83;1.77;;;22.90;47.10;;;;;;4212044;28;20048;-43
2021/01/03 10:09:34;;;;;;;0.47;0.47;;;22.60;47.50;;;;;;4212194;28;20561;-42
2021/01/03 10:11:56;;;;;;;0.65;0.35;;;22.30;48.30;;;;;;4211574;28;20124;-41
2021/01/03 10:14:28;;;;;;;0.75;0.75;;;21.90;49.20;;;;;;4211913;28;20056;-42
2021/01/03 10:16:49;;;;;;;1.65;1.55;;;21.40;50.40;;;;;;4195415;28;20155;-42
2021/01/03 10:19:15;;;;;;;1.00;0.68;;;21.00;51.30;;;;;;4199857;28;20116;-42
2021/01/03 10:21:38;;;;;;;1.55;1.02;;;20.60;52.40;;;;;;4195407;28;20559;-42
2021/01/03 10:24:01;;;;;;;1.38;1.13;;;20.30;53.50;;;;;;4203592;28;20519;-42
2021/01/03 10:26:25;;;;;;;1.00;1.00;;;20.20;53.60;;;;;;4216038;28;20608;-42
2021/01/03 10:28:47;;;;;;;0.40;0.40;;;20.20;53.40;;;;;;4214797;28;20417;-42
2021/01/03 10:31:08;;;;;;;0.15;0.15;;;20.30;53.20;;;;;;4214983;28;20082;-42
2021/01/03 10:33:29;;;;;;;0.85;0.85;;;20.40;53.10;;;;;;4214386;28;20059;-42
2021/01/03 10:35:50;;;;;;;0.90;0.90;;;20.40;53.00;;;;;;4214597;28;20130;-41
2021/01/03 10:38:11;;;;;;;0.70;0.70;;;20.40;52.90;;;;;;4215143;28;20492;-42
2021/01/03 10:40:32;;;;;;;0.60;0.60;;;20.40;52.80;;;;;;4214488;28;20127;-41
2021/01/03 10:42:53;;;;;;;0.40;0.40;;;20.50;52.60;;;;;;4198225;28;20049;-42
2021/01/03 10:45:16;;;;;;;0.43;0.43;;;20.50;52.50;;;;;;4201155;28;20044;-42
2021/01/03 10:47:37;;;;;;;0.52;0.52;;;20.50;52.40;;;;;;4213478;28;20052;-42
2021/01/03 10:49:57;;;;;;;2.28;1.63;;;20.60;52.30;;;;;;4214808;28;20055;-42
2021/01/03 10:52:18;;;;;;;0.13;0.13;;;20.70;51.90;;;;;;4214495;28;20060;-42
2021/01/03 10:54:39;;;;;;;1.52;1.02;;;20.70;51.70;;;;;;4205696;28;20426;-42
2021/01/03 10:57:01;;;;;;;0.95;0.63;;;20.70;51.70;;;;;;4214555;28;20068;-42
2021/01/03 10:59:22;;;;;;;1.15;1.13;;;20.80;51.40;;;;;;4214743;28;20052;-42
2021/01/03 11:01:45;;;;;;;2.17;0.63;;;20.80;51.40;;;;;;4214521;28;20056;-42
2021/01/03 11:04:07;;;;;;;0.32;0.32;;;20.90;51.20;;;;;;4211803;28;20417;-42
2021/01/03 11:06:36;;;;;;;0.40;0.40;;;20.90;50.90;;;;;;4213877;28;20052;-42
2021/01/03 11:08:57;;;;;;;10.73;1.20;;;21.00;50.80;;;;;;4212921;28;20525;-41
2021/01/03 11:11:20;;;;;;;0.50;0.50;;;21.00;50.80;;;;;;4211313;28;20056;-42
2021/01/03 11:13:41;;;;;;;0.30;0.30;;;21.00;50.90;;;;;;4213823;28;20040;-42
2021/01/03 11:16:03;;;;;;;0.45;0.45;;;20.90;51.00;;;;;;4211801;28;20056;-42
2021/01/03 11:18:24;;;;;;;2.03;1.58;;;20.90;51.20;;;;;;4213669;28;20076;-42
2021/01/03 11:20:45;;;;;;;0.30;0.30;;;21.00;50.80;;;;;;4213226;28;20058;-42
2021/01/03 11:23:18;;;;;;;0.13;0.13;;;21.00;50.80;;;;;;4214256;28;20051;-43
2021/01/03 11:25:44;;;;;;;1.08;1.08;;;20.80;51.30;;;;;;4214658;28;20093;-42
2021/01/03 11:28:05;;;;;;;0.77;0.77;;;20.60;51.80;;;;;;4214137;28;20429;-42
2021/01/03 11:30:26;;;;;;;3.45;2.72;;;20.50;51.80;;;;;;4212984;28;20139;-42
2021/01/03 11:32:47;;;;;;;0.28;0.28;;;20.60;51.70;;;;;;4214482;28;20082;-42
2021/01/03 11:35:10;;;;;;;0.13;0.13;;;20.60;51.30;;;;;;4213575;28;20056;-42
2021/01/03 11:37:31;;;;;;;0.28;0.28;;;20.70;51.10;;;;;;4213877;28;20052;-41
2021/01/03 11:39:53;;;;;;;;;;;20.70;50.80;;;;;;4214536;28;20040;-42
2021/01/03 11:42:22;;;;;;;1.00;0.88;;;20.80;50.80;;;;;;4213928;28;19967;-42
2021/01/03 11:44:44;;;;;;;6.93;2.83;;;20.90;50.50;;;;;;4212227;28;20510;-42
2021/01/03 11:47:07;;;;;;;0.05;0.05;;;21.00;50.20;;;;;;4213101;28;20048;-42
2021/01/03 11:49:32;;;;;;;0.73;0.73;;;21.20;50.00;;;;;;4197073;28;20048;-42
2021/01/03 11:51:54;;;;;;;1.67;1.27;;;21.30;49.80;;;;;;4197053;28;20052;-42
2021/01/03 11:54:15;;;;;;;0.20;0.20;;;21.20;49.70;;;;;;4202271;28;20392;-43
2021/01/03 11:56:35;;;;;;;0.88;0.88;;;21.20;49.50;;;;;;4213753;28;20581;-42
2021/01/03 11:58:56;;;;;;;2.55;2.38;;;21.20;49.40;;;;;;4213151;28;20050;-42
2021/01/03 12:01:18;;;;;;;0.35;0.35;;;21.00;49.90;;;;;;4213883;28;20503;-42
2021/01/03 12:03:41;;;;;;;0.20;0.20;;;20.70;50.30;;;;;;4214168;28;20073;-42
2021/01/03 12:06:02;;;;;;;;;;;20.50;50.80;;;;;;4214017;28;20079;-42
2021/01/03 12:08:24;;;;;;;0.40;0.40;;;20.40;50.90;;;;;;4213265;28;19927;-42
2021/01/03 12:10:45;;;;;;;0.75;0.75;;;20.50;50.90;;;;;;4213749;28;20453;-42
2021/01/03 12:13:06;;;;;;;0.25;0.25;;;20.60;50.80;;;;;;4213246;28;20132;-42
2021/01/03 12:15:31;;;;;;;0.73;0.73;;;20.60;50.60;;;;;;4212740;28;20507;-42
2021/01/03 12:17:52;;;;;;;0.30;0.30;;;20.60;50.60;;;;;;4213320;28;20502;-42
2021/01/03 12:20:14;;;;;;;0.28;0.28;;;20.60;50.60;;;;;;4213152;28;20513;-42
2021/01/03 12:22:35;;;;;;;0.95;0.95;;;20.60;50.40;;;;;;4209315;28;20051;-42
2021/01/03 12:24:57;;;;;;;0.75;0.70;;;20.60;50.50;;;;;;4209363;28;20135;-41
2021/01/03 12:27:20;;;;;;;0.10;0.10;;;20.60;50.40;;;;;;4212052;28;20048;-41
2021/01/03 12:29:41;;;;;;;2.85;1.27;;;20.70;50.30;;;;;;4212657;28;20048;-42
2021/01/03 12:32:04;;;;;;;;;;;20.70;50.20;;;;;;4213634;28;20097;-43
2021/01/03 12:34:27;;;;;;;3.25;1.85;;;20.70;50.50;;;;;;4213202;28;19927;-42
2021/01/03 12:36:49;;;;;;;0.55;0.55;;;20.70;50.50;;;;;;4213745;28;20048;-42
2021/01/03 12:39:12;;;;;;;1.30;1.17;;;20.70;50.40;;;;;;4204287;28;20083;-42